Main page
METAR-TAF:

METAR-TAF

Airports :

Campo Grande International Airport

Campo Grande, Mato Grosso do Sul, Brazil

latitude: 20-28S, longitude: 054-40W, elevation: 567 m

Current weather observation

The report was made 2 hours and 19 minutes ago, at 23:00 UTC
Wind 3 kt from the West
Temperature 26°C
Humidity 61%
Pressure 1015 hPa
Visibility 10 km or more
no clouds below 1500 m and no cumulonimbus

METAR: SBCG 022300Z 26003KT CAVOK 26/18 Q1015

Time: 21:19 (01:19 UTC)

Forecast

The report was made 3 hours and 34 minutes ago, at 21:45 UTC
Forecast valid from 03 at 00 UTC to 03 at 24 UTC
Wind 5 kt from the Southeast
Visibility 10 km or more
no clouds below 1500 m and no cumulonimbus
Becoming
from 03 at 14 UTC to 03 at 16 UTC
Wind 10 kt from the West
Scattered clouds at a height of 4000 ft
Becoming
from 03 at 20 UTC to 03 at 22 UTC
Wind 5 kt from the Southwest

TAF: SBCG 022145Z 0300/0324 14005KT CAVOK TN20/0310Z TX31/0318Z BECMG 0314/0316 28010KT SCT040 BECMG 0320/0322 22005KT RMK PGG

Weather observations and forecasts of more than 4000 airports (METAR and TAF reports).

The available stations are represented by yellow and red dots on the map.

Hover mouse over dot to see the name of the station.

Then click to see weather observations and forecasts.

To change the map : click on the green buttons with a black cross to zoom in, on the green button with a dash to zoom out, or on the green arrows for adjacent maps.


METAR-TAF: